createdAt,value
2023-11-19T00:01:35.043Z,61.84
2023-11-19T00:04:01.816Z,61.53
2023-11-19T00:06:28.981Z,61.91
2023-11-19T00:08:55.653Z,61.72
2023-11-19T00:11:22.470Z,61.71
2023-11-19T00:13:49.306Z,61.86
2023-11-19T00:16:17.600Z,61.71
2023-11-19T00:18:44.599Z,61.87
2023-11-19T00:21:11.600Z,61.80
2023-11-19T00:23:38.911Z,61.73
2023-11-19T00:26:07.348Z,61.47
2023-11-19T00:28:35.070Z,61.44
2023-11-19T00:31:01.976Z,61.49
2023-11-19T00:33:28.686Z,61.86
2023-11-19T00:35:55.377Z,61.56
2023-11-19T00:38:22.240Z,61.58
2023-11-19T00:40:48.899Z,61.61
2023-11-19T00:43:15.525Z,61.33
2023-11-19T00:45:42.333Z,61.40
2023-11-19T00:48:08.938Z,61.88
2023-11-19T00:50:37.760Z,61.76
2023-11-19T00:53:05.147Z,61.85
2023-11-19T00:55:31.822Z,61.91
2023-11-19T00:57:59.172Z,61.60
2023-11-19T01:00:28.247Z,61.47
2023-11-19T01:02:54.904Z,61.76
2023-11-19T01:05:24.782Z,61.42
2023-11-19T01:07:53.479Z,61.47
2023-11-19T01:10:20.336Z,61.47
2023-11-19T01:12:47.659Z,61.18
2023-11-19T01:15:14.364Z,61.37
2023-11-19T01:17:52.323Z,61.52
2023-11-19T01:20:21.121Z,61.39
2023-11-19T01:22:49.826Z,61.47
2023-11-19T01:25:16.531Z,61.39
2023-11-19T01:27:43.329Z,61.17
2023-11-19T01:30:13.964Z,61.25
2023-11-19T01:32:43.641Z,61.28
2023-11-19T01:35:10.261Z,61.41
2023-11-19T01:37:37.105Z,61.15
2023-11-19T01:40:09.335Z,61.12
2023-11-19T01:42:39.733Z,61.19
2023-11-19T01:45:09.485Z,61.27
2023-11-19T01:47:36.475Z,61.11
2023-11-19T01:50:07.333Z,61.17
2023-11-19T01:52:35.565Z,61.08
2023-11-19T01:55:02.621Z,61.24
2023-11-19T01:57:29.216Z,61.14
2023-11-19T01:59:55.810Z,61.25
2023-11-19T02:02:23.256Z,61.11
2023-11-19T02:04:52.181Z,61.04
2023-11-19T02:07:19.528Z,61.25
2023-11-19T02:09:46.100Z,61.28
2023-11-19T02:12:12.979Z,61.21
2023-11-19T02:14:39.584Z,61.23
2023-11-19T02:17:06.309Z,61.33
2023-11-19T02:19:32.932Z,61.32
2023-11-19T02:21:59.551Z,61.26
2023-11-19T02:24:29.017Z,61.29
2023-11-19T02:27:14.956Z,61.34
2023-11-19T02:29:41.479Z,61.37
2023-11-19T02:32:10.626Z,61.32
2023-11-19T02:34:37.239Z,61.17
2023-11-19T02:37:04.929Z,61.20
2023-11-19T02:39:31.668Z,61.07
2023-11-19T02:41:58.479Z,61.22
2023-11-19T02:44:25.088Z,61.08
2023-11-19T02:46:51.666Z,60.94
2023-11-19T02:49:18.374Z,61.05
2023-11-19T02:51:44.931Z,60.92
2023-11-19T02:54:11.533Z,61.02
2023-11-19T02:56:40.098Z,60.97
2023-11-19T02:59:15.836Z,61.25
2023-11-19T03:01:45.049Z,60.91
2023-11-19T03:04:13.585Z,61.07
2023-11-19T03:06:40.327Z,61.01
2023-11-19T03:09:07.482Z,61.14
2023-11-19T03:11:34.013Z,61.00
2023-11-19T03:14:00.548Z,61.10
2023-11-19T03:16:27.137Z,61.07
2023-11-19T03:18:54.012Z,61.06
2023-11-19T03:21:20.541Z,60.91
2023-11-19T03:23:47.070Z,60.81
2023-11-19T03:26:14.510Z,61.16
2023-11-19T03:28:41.020Z,60.97
2023-11-19T03:31:09.946Z,61.02
2023-11-19T03:33:36.719Z,61.19
2023-11-19T03:36:03.395Z,61.27
2023-11-19T03:38:29.936Z,61.18
2023-11-19T03:40:56.427Z,61.19
2023-11-19T03:43:23.023Z,61.29
2023-11-19T03:45:49.761Z,61.21
2023-11-19T03:48:17.606Z,61.02
2023-11-19T03:50:44.817Z,61.11
2023-11-19T03:53:13.040Z,61.26
2023-11-19T03:55:39.646Z,60.98
2023-11-19T03:58:06.278Z,61.22
2023-11-19T04:00:33.650Z,61.20
2023-11-19T04:03:00.276Z,61.18
2023-11-19T04:05:26.849Z,61.07
2023-11-19T04:07:53.406Z,61.16
2023-11-19T04:10:20.045Z,61.20
2023-11-19T04:12:46.746Z,61.18
2023-11-19T04:15:14.508Z,61.08
2023-11-19T04:17:41.147Z,61.19
2023-11-19T04:20:11.956Z,61.12
2023-11-19T04:22:38.540Z,60.92
2023-11-19T04:25:05.857Z,60.95
2023-11-19T04:27:32.417Z,61.18
2023-11-19T04:29:59.100Z,61.07
2023-11-19T04:32:27.812Z,61.05
2023-11-19T04:34:54.416Z,61.09
2023-11-19T04:37:20.995Z,61.09
2023-11-19T04:39:47.711Z,61.22
2023-11-19T04:42:14.429Z,61.17
2023-11-19T04:44:40.949Z,60.98
2023-11-19T04:47:07.514Z,61.06
2023-11-19T04:49:34.321Z,61.04
2023-11-19T04:52:01.452Z,61.15
2023-11-19T04:54:28.008Z,61.11
2023-11-19T04:56:54.633Z,61.00
2023-11-19T04:59:21.195Z,60.91
2023-11-19T05:01:49.195Z,61.03
2023-11-19T05:04:16.269Z,60.89
2023-11-19T05:06:43.030Z,60.99
2023-11-19T05:09:10.209Z,60.94
2023-11-19T05:11:36.785Z,61.02
2023-11-19T05:14:06.801Z,61.07
2023-11-19T05:16:33.786Z,60.84
2023-11-19T05:19:00.583Z,61.14
2023-11-19T05:21:27.359Z,60.90
2023-11-19T05:23:53.876Z,60.93
2023-11-19T05:26:24.508Z,60.89
2023-11-19T05:28:51.789Z,60.91
2023-11-19T05:31:19.468Z,60.80
2023-11-19T05:33:46.168Z,60.89
2023-11-19T05:36:13.878Z,60.83
2023-11-19T05:38:40.927Z,60.82
2023-11-19T05:41:07.707Z,60.86
2023-11-19T05:43:34.668Z,60.90
2023-11-19T05:46:02.723Z,61.03
2023-11-19T05:48:30.080Z,60.85
2023-11-19T05:50:56.755Z,60.44
2023-11-19T05:53:23.331Z,60.84
2023-11-19T05:55:55.992Z,60.72
2023-11-19T05:58:33.636Z,60.95
2023-11-19T06:01:02.174Z,60.62
2023-11-19T06:03:29.119Z,60.86
2023-11-19T06:05:55.821Z,60.93
2023-11-19T06:08:22.377Z,60.63
2023-11-19T06:10:51.698Z,60.68
2023-11-19T06:13:18.257Z,60.33
2023-11-19T06:15:45.122Z,60.78
2023-11-19T06:18:13.518Z,60.84
2023-11-19T06:23:09.845Z,60.72
2023-11-19T06:25:36.766Z,60.96
2023-11-19T06:28:04.079Z,60.62
2023-11-19T06:30:32.329Z,60.69
2023-11-19T06:32:59.200Z,60.46
2023-11-19T06:35:25.823Z,60.38
2023-11-19T06:37:52.370Z,60.41
2023-11-19T06:40:18.975Z,60.26
2023-11-19T06:42:45.494Z,60.34
2023-11-19T06:45:12.226Z,60.40
2023-11-19T06:47:38.809Z,60.22
2023-11-19T06:50:06.855Z,60.21
2023-11-19T06:52:33.537Z,60.19
2023-11-19T06:57:30.765Z,60.05
2023-11-19T06:59:58.407Z,60.01
2023-11-19T07:02:27.927Z,60.03
2023-11-19T07:04:55.817Z,60.35
2023-11-19T07:07:22.528Z,60.19
2023-11-19T07:09:49.261Z,59.97
2023-11-19T07:12:16.645Z,60.36
2023-11-19T07:14:43.471Z,60.15
2023-11-19T07:17:11.417Z,60.36
2023-11-19T07:19:39.504Z,60.24
2023-11-19T07:22:07.418Z,60.21
2023-11-19T07:24:34.205Z,60.11
2023-11-19T07:27:00.992Z,59.95
2023-11-19T07:29:29.390Z,60.14
2023-11-19T07:31:57.522Z,60.17
2023-11-19T07:34:25.892Z,60.15
2023-11-19T07:36:53.110Z,60.13
2023-11-19T07:39:21.812Z,60.16
2023-11-19T07:41:48.406Z,60.18
2023-11-19T07:44:14.951Z,59.98
2023-11-19T07:46:43.368Z,60.13
2023-11-19T07:49:10.862Z,60.10
2023-11-19T07:51:37.625Z,59.98
2023-11-19T07:54:05.331Z,60.31
2023-11-19T07:56:35.476Z,59.97
2023-11-19T07:59:03.080Z,60.05
2023-11-19T08:01:29.769Z,59.93
2023-11-19T08:04:00.183Z,59.84
2023-11-19T08:06:27.267Z,59.94
2023-11-19T08:08:53.840Z,59.90
2023-11-19T08:11:21.286Z,59.95
2023-11-19T08:13:48.218Z,59.79
2023-11-19T08:16:16.107Z,59.72
2023-11-19T08:18:45.994Z,59.74
2023-11-19T08:21:12.614Z,59.70
2023-11-19T08:23:39.563Z,59.75
2023-11-19T08:26:07.407Z,60.02
2023-11-19T08:28:35.891Z,59.81
2023-11-19T08:31:05.407Z,59.78
2023-11-19T08:33:32.198Z,59.87
2023-11-19T08:35:59.673Z,59.82
2023-11-19T08:41:00.832Z,60.09
2023-11-19T08:43:28.081Z,59.92
2023-11-19T08:45:54.919Z,60.03
2023-11-19T08:48:21.688Z,60.11
2023-11-19T08:50:48.350Z,59.78
2023-11-19T08:53:14.907Z,59.65
2023-11-19T08:55:41.468Z,59.80
2023-11-19T08:58:08.017Z,59.87
2023-11-19T09:00:34.643Z,59.67
2023-11-19T09:03:01.392Z,59.43
2023-11-19T09:05:28.049Z,59.42
2023-11-19T09:07:54.664Z,59.49
2023-11-19T09:10:21.144Z,59.13
2023-11-19T09:12:47.698Z,58.88
2023-11-19T09:15:14.494Z,58.95
2023-11-19T09:17:42.067Z,59.04
2023-11-19T09:20:09.644Z,58.92
2023-11-19T09:22:36.387Z,58.82
2023-11-19T09:25:03.017Z,58.42
2023-11-19T09:27:29.607Z,58.27
2023-11-19T09:29:58.855Z,58.37
2023-11-19T09:32:26.173Z,58.51
2023-11-19T09:34:52.817Z,58.43
2023-11-19T09:37:22.591Z,58.47
2023-11-19T09:39:49.448Z,58.70
2023-11-19T09:42:17.050Z,58.48
2023-11-19T09:44:44.317Z,58.26
2023-11-19T09:47:13.520Z,58.67
2023-11-19T09:49:40.666Z,58.59
2023-11-19T09:52:07.531Z,58.68
2023-11-19T09:54:34.713Z,58.72
2023-11-19T09:57:05.260Z,58.96
2023-11-19T09:59:33.138Z,58.76
2023-11-19T10:02:00.841Z,58.99
2023-11-19T10:04:31.104Z,58.97
2023-11-19T10:06:58.079Z,58.97
2023-11-19T10:09:24.758Z,58.97
2023-11-19T10:11:51.491Z,59.05
2023-11-19T10:14:24.108Z,59.05
2023-11-19T10:16:50.916Z,59.00
2023-11-19T10:19:24.110Z,59.14
2023-11-19T10:21:50.700Z,59.27
2023-11-19T10:26:46.766Z,59.45
2023-11-19T10:29:16.494Z,59.30
2023-11-19T10:31:57.032Z,59.46
2023-11-19T10:34:28.407Z,59.30
2023-11-19T10:36:55.064Z,59.24
2023-11-19T10:39:22.257Z,59.57
2023-11-19T10:41:48.958Z,59.33
2023-11-19T10:44:32.382Z,61.63
2023-11-19T10:47:00.401Z,62.33
2023-11-19T10:49:26.972Z,60.67
2023-11-19T10:51:57.909Z,61.56
2023-11-19T10:54:24.552Z,62.33
2023-11-19T10:57:00.338Z,62.97
2023-11-19T10:59:32.908Z,62.10
2023-11-19T11:02:04.721Z,63.90
2023-11-19T11:04:34.673Z,63.20
2023-11-19T11:07:03.261Z,63.00
2023-11-19T11:09:31.203Z,63.12
2023-11-19T11:12:01.421Z,63.28
2023-11-19T11:14:28.285Z,63.43
2023-11-19T11:16:57.851Z,63.12
2023-11-19T11:19:24.577Z,64.10
2023-11-19T11:21:54.853Z,62.79
2023-11-19T11:24:21.482Z,63.60
2023-11-19T11:27:18.634Z,63.49
2023-11-19T11:30:01.329Z,63.26
2023-11-19T11:32:34.599Z,62.25
2023-11-19T11:35:28.246Z,62.36
2023-11-19T11:38:04.312Z,62.39
2023-11-19T11:40:31.036Z,62.41
2023-11-19T11:42:57.658Z,61.99
2023-11-19T11:45:40.233Z,61.78
2023-11-19T11:48:11.403Z,62.01
2023-11-19T11:50:49.594Z,62.46
2023-11-19T11:53:23.913Z,61.86
2023-11-19T11:55:50.443Z,61.83
2023-11-19T11:58:28.042Z,62.02
2023-11-19T12:00:55.131Z,62.40
2023-11-19T12:03:25.629Z,61.83
2023-11-19T12:05:53.009Z,62.33
2023-11-19T12:08:26.687Z,62.04
2023-11-19T12:10:55.309Z,61.36
2023-11-19T12:13:25.125Z,62.01
2023-11-19T12:15:57.926Z,61.91
2023-11-19T12:18:29.700Z,61.65
2023-11-19T12:20:57.272Z,61.34
2023-11-19T12:23:24.912Z,60.85
2023-11-19T12:25:51.562Z,61.30
2023-11-19T12:28:18.528Z,61.77
2023-11-19T12:30:45.518Z,61.13
2023-11-19T12:33:13.515Z,61.13
2023-11-19T12:35:41.627Z,61.20
2023-11-19T12:38:08.184Z,61.69
2023-11-19T12:40:34.817Z,61.87
2023-11-19T12:43:01.504Z,61.79
2023-11-19T12:45:38.228Z,62.26
2023-11-19T12:48:08.931Z,61.73
2023-11-19T12:51:03.207Z,61.80
2023-11-19T12:53:30.252Z,61.65
2023-11-19T12:55:57.002Z,61.73
2023-11-19T12:58:33.997Z,61.73
2023-11-19T13:01:02.258Z,61.43
2023-11-19T13:03:37.112Z,61.66
2023-11-19T13:06:09.347Z,61.82
2023-11-19T13:08:46.734Z,61.81
2023-11-19T13:11:14.512Z,61.81
2023-11-19T13:14:05.667Z,61.78
2023-11-19T13:16:33.090Z,61.57
2023-11-19T13:19:01.312Z,61.58
2023-11-19T13:21:28.141Z,61.61
2023-11-19T13:23:54.832Z,61.59
2023-11-19T13:26:21.471Z,61.42
2023-11-19T13:28:48.251Z,61.41
2023-11-19T13:31:15.491Z,61.04
2023-11-19T13:33:42.862Z,61.05
2023-11-19T13:36:11.660Z,61.26
2023-11-19T13:38:40.553Z,61.09
2023-11-19T13:41:07.235Z,60.77
2023-11-19T13:43:33.943Z,60.97
2023-11-19T13:46:00.553Z,60.93
2023-11-19T13:48:30.557Z,60.95
2023-11-19T13:50:57.265Z,60.70
2023-11-19T13:53:26.564Z,60.37
2023-11-19T13:55:54.121Z,59.92
2023-11-19T13:58:20.709Z,60.58
2023-11-19T14:00:47.341Z,60.35
2023-11-19T14:03:14.162Z,60.41
2023-11-19T14:05:42.605Z,60.41
2023-11-19T14:08:23.270Z,60.70
2023-11-19T14:10:53.236Z,60.74
2023-11-19T14:13:19.931Z,60.42
2023-11-19T14:15:49.179Z,60.42
2023-11-19T14:18:17.022Z,60.46
2023-11-19T14:20:43.955Z,60.07
2023-11-19T14:23:10.737Z,60.21
2023-11-19T14:25:37.452Z,60.37
2023-11-19T14:28:05.797Z,60.54
2023-11-19T14:30:33.321Z,60.47
2023-11-19T14:33:00.269Z,60.40
2023-11-19T14:35:27.092Z,60.50
2023-11-19T14:37:54.103Z,60.10
2023-11-19T14:40:20.737Z,60.63
2023-11-19T14:42:47.391Z,60.46
2023-11-19T14:45:14.085Z,60.93
2023-11-19T14:47:40.902Z,60.81
2023-11-19T14:50:08.282Z,60.84
2023-11-19T14:52:37.092Z,60.96
2023-11-19T14:55:03.919Z,60.82
2023-11-19T14:57:30.987Z,60.83
2023-11-19T14:59:57.687Z,61.18
2023-11-19T15:02:24.283Z,61.01
2023-11-19T15:04:50.962Z,61.40
2023-11-19T15:07:17.614Z,61.30
2023-11-19T15:09:44.253Z,61.07
2023-11-19T15:12:10.864Z,61.10
2023-11-19T15:14:37.679Z,61.07
2023-11-19T15:17:04.584Z,60.77
2023-11-19T15:19:31.300Z,60.53
2023-11-19T15:21:58.013Z,60.79
2023-11-19T15:24:26.466Z,60.74
2023-11-19T15:26:53.349Z,60.50
2023-11-19T15:29:20.562Z,60.51
2023-11-19T15:31:47.804Z,60.24
2023-11-19T15:34:14.657Z,60.26
2023-11-19T15:36:41.233Z,60.32
2023-11-19T15:39:07.768Z,60.71
2023-11-19T15:41:34.460Z,60.46
2023-11-19T15:44:01.109Z,60.41
2023-11-19T15:46:27.702Z,60.70
2023-11-19T15:48:54.247Z,60.59
2023-11-19T15:51:20.876Z,60.78
2023-11-19T15:53:47.652Z,60.63
2023-11-19T15:56:15.474Z,60.75
2023-11-19T15:58:42.162Z,60.69
2023-11-19T16:01:12.424Z,60.43
2023-11-19T16:06:11.503Z,60.54
2023-11-19T16:08:39.784Z,60.78
2023-11-19T16:11:08.832Z,61.01
2023-11-19T16:13:35.382Z,60.84
2023-11-19T16:16:02.032Z,61.12
2023-11-19T16:18:29.024Z,61.07
2023-11-19T16:20:56.441Z,60.74
2023-11-19T16:23:23.054Z,61.03
2023-11-19T16:25:51.021Z,61.43
2023-11-19T16:28:18.385Z,61.16
2023-11-19T16:30:44.957Z,60.85
2023-11-19T16:33:17.240Z,60.46
2023-11-19T16:35:51.607Z,60.62
2023-11-19T16:38:18.244Z,60.45
2023-11-19T16:40:45.160Z,60.61
2023-11-19T16:43:12.008Z,60.72
2023-11-19T16:45:38.654Z,60.21
2023-11-19T16:48:05.894Z,60.25
2023-11-19T16:50:32.908Z,60.72
2023-11-19T16:53:01.020Z,60.63
2023-11-19T16:55:28.166Z,61.05
2023-11-19T16:57:55.225Z,60.93
2023-11-19T17:00:21.782Z,60.67
2023-11-19T17:05:18.145Z,61.11
2023-11-19T17:07:44.759Z,60.51
2023-11-19T17:10:11.901Z,60.63
2023-11-19T17:12:38.625Z,59.91
2023-11-19T17:15:06.102Z,59.15
2023-11-19T17:17:36.955Z,58.58
2023-11-19T17:20:05.722Z,58.36
2023-11-19T17:22:34.405Z,58.30
2023-11-19T17:25:01.835Z,58.26
2023-11-19T17:27:31.388Z,58.33
2023-11-19T17:29:58.760Z,58.22
2023-11-19T17:32:26.620Z,57.81
2023-11-19T17:34:54.473Z,57.88
2023-11-19T17:37:21.109Z,58.09
2023-11-19T17:39:48.010Z,58.18
2023-11-19T17:42:14.824Z,58.05
2023-11-19T17:44:41.438Z,58.17
2023-11-19T17:47:08.176Z,58.27
2023-11-19T17:49:35.386Z,58.10
2023-11-19T17:52:02.706Z,58.47
2023-11-19T17:54:29.926Z,58.69
2023-11-19T17:56:58.069Z,58.87
2023-11-19T17:59:25.910Z,59.21
2023-11-19T18:01:58.101Z,58.79
2023-11-19T18:04:28.664Z,58.56
2023-11-19T18:06:55.971Z,58.73
2023-11-19T18:09:23.142Z,58.38
2023-11-19T18:11:54.665Z,58.62
2023-11-19T18:14:24.413Z,58.77
2023-11-19T18:16:51.229Z,58.82
2023-11-19T18:19:19.572Z,58.96
2023-11-19T18:21:47.010Z,58.83
2023-11-19T18:24:16.325Z,58.77
2023-11-19T18:26:44.886Z,58.96
2023-11-19T18:29:12.396Z,58.90
2023-11-19T18:31:39.240Z,58.90
2023-11-19T18:34:06.140Z,58.92
2023-11-19T18:36:37.813Z,58.92
2023-11-19T18:39:05.679Z,58.38
2023-11-19T18:41:32.503Z,58.48
2023-11-19T18:43:59.107Z,58.57
2023-11-19T18:46:25.809Z,58.08
2023-11-19T18:48:53.542Z,58.11
2023-11-19T18:51:20.217Z,58.13
2023-11-19T18:53:47.677Z,58.20
2023-11-19T18:56:15.326Z,58.08
2023-11-19T18:58:42.031Z,58.16
2023-11-19T19:01:12.679Z,57.98
2023-11-19T19:03:41.735Z,57.98
2023-11-19T19:06:08.795Z,57.98
2023-11-19T19:08:35.634Z,57.74
2023-11-19T19:11:02.281Z,58.01
2023-11-19T19:13:28.983Z,57.88
2023-11-19T19:15:55.616Z,57.89
2023-11-19T19:18:22.307Z,57.82
2023-11-19T19:20:49.043Z,57.69
2023-11-19T19:23:15.676Z,57.84
2023-11-19T19:25:42.296Z,57.57
2023-11-19T19:30:40.542Z,57.49
2023-11-19T19:33:07.174Z,58.27
2023-11-19T19:35:33.864Z,59.46
2023-11-19T19:38:00.695Z,58.93
2023-11-19T19:40:28.039Z,58.98
2023-11-19T19:42:56.153Z,59.21
2023-11-19T19:45:23.826Z,59.04
2023-11-19T19:47:51.565Z,59.19
2023-11-19T19:50:18.415Z,59.04
2023-11-19T19:52:45.117Z,59.14
2023-11-19T19:55:11.791Z,59.16
2023-11-19T19:57:38.959Z,59.11
2023-11-19T20:00:13.701Z,59.10
2023-11-19T20:02:42.499Z,59.08
2023-11-19T20:05:12.801Z,58.97
2023-11-19T20:07:43.557Z,59.14
2023-11-19T20:10:13.901Z,59.42
2023-11-19T20:12:41.366Z,59.33
2023-11-19T20:15:10.209Z,59.58
2023-11-19T20:17:36.983Z,59.54
2023-11-19T20:20:04.624Z,59.36
2023-11-19T20:22:32.353Z,59.25
2023-11-19T20:24:59.094Z,59.41
2023-11-19T20:27:25.824Z,59.20
2023-11-19T20:29:52.429Z,59.35
2023-11-19T20:32:19.041Z,59.32
2023-11-19T20:34:45.653Z,59.41
2023-11-19T20:37:12.197Z,59.62
2023-11-19T20:39:38.807Z,59.65
2023-11-19T20:42:05.886Z,59.58
2023-11-19T20:44:32.722Z,60.80
2023-11-19T20:47:02.129Z,61.05
2023-11-19T20:49:28.831Z,61.59
2023-11-19T20:51:55.665Z,61.35
2023-11-19T20:56:51.749Z,61.64
2023-11-19T20:59:20.075Z,61.81
2023-11-19T21:01:46.916Z,61.65
2023-11-19T21:04:13.918Z,61.87
2023-11-19T21:09:16.850Z,62.49
2023-11-19T21:11:43.623Z,62.57
2023-11-19T21:14:10.704Z,62.60
2023-11-19T21:16:37.240Z,62.63
2023-11-19T21:19:04.141Z,62.32
2023-11-19T21:21:31.259Z,62.75
2023-11-19T21:23:58.052Z,63.10
2023-11-19T21:26:25.548Z,62.90
2023-11-19T21:28:52.114Z,62.67
2023-11-19T21:31:19.086Z,63.09
2023-11-19T21:33:46.548Z,63.03
2023-11-19T21:36:14.296Z,63.06
2023-11-19T21:38:40.855Z,62.75
2023-11-19T21:41:08.261Z,62.95
2023-11-19T21:43:34.919Z,62.95
2023-11-19T21:46:01.713Z,62.77
2023-11-19T21:48:28.372Z,63.00
2023-11-19T21:50:54.983Z,63.02
2023-11-19T21:53:21.641Z,63.18
2023-11-19T21:55:48.156Z,62.97
2023-11-19T21:58:14.684Z,63.17
2023-11-19T22:00:41.497Z,62.74
2023-11-19T22:03:08.853Z,63.06
2023-11-19T22:05:36.380Z,62.96
2023-11-19T22:10:33.018Z,63.01
2023-11-19T22:12:59.595Z,62.84
2023-11-19T22:15:26.587Z,62.99
2023-11-19T22:17:54.419Z,62.78
2023-11-19T22:22:52.365Z,62.70
2023-11-19T22:25:20.265Z,62.71
2023-11-19T22:27:46.928Z,62.74
2023-11-19T22:30:14.837Z,63.20
2023-11-19T22:32:41.671Z,62.90
2023-11-19T22:35:08.996Z,62.86
2023-11-19T22:37:35.594Z,63.03
2023-11-19T22:40:02.181Z,62.69
2023-11-19T22:42:28.891Z,62.88
2023-11-19T22:44:55.461Z,63.05
2023-11-19T22:47:23.197Z,62.89
2023-11-19T22:49:49.738Z,62.95
2023-11-19T22:52:16.294Z,63.01
2023-11-19T22:54:43.927Z,63.17
2023-11-19T22:57:10.553Z,63.06
2023-11-19T22:59:37.077Z,63.17
2023-11-19T23:02:03.815Z,62.88
2023-11-19T23:04:30.461Z,63.07
2023-11-19T23:06:56.983Z,63.50
2023-11-19T23:09:23.546Z,63.21
2023-11-19T23:11:53.226Z,63.07
2023-11-19T23:14:19.806Z,63.25
2023-11-19T23:16:46.558Z,63.20
2023-11-19T23:19:13.235Z,63.43
2023-11-19T23:21:43.644Z,63.45
2023-11-19T23:24:11.097Z,63.77
2023-11-19T23:26:37.799Z,63.89
2023-11-19T23:29:13.650Z,64.06
2023-11-19T23:31:42.841Z,64.02
2023-11-19T23:34:09.454Z,63.73
2023-11-19T23:36:36.012Z,63.92
2023-11-19T23:39:02.586Z,63.84
2023-11-19T23:41:31.579Z,63.79
2023-11-19T23:43:58.940Z,63.89
2023-11-19T23:46:25.631Z,63.34
2023-11-19T23:51:23.795Z,63.66
2023-11-19T23:53:50.384Z,62.87
2023-11-19T23:56:16.966Z,62.73
2023-11-19T23:58:43.576Z,62.26
